Date,TemperatureHighF,TemperatureAvgF,TemperatureLowF,DewpointHighF,DewpointAvgF,DewpointLowF,HumidityHigh,HumidityAvg,HumidityLow,PressureMaxIn,PressureMinIn,WindSpeedMaxMPH,WindSpeedAvgMPH,GustSpeedMaxMPH,PrecipitationSumIn
2013-1-1,43,31,22,28,21,12,97,69,45,30.37,30.27,5,0,0,0.03
2013-1-2,53,35,24,17,12,4,68,40,18,30.35,30.14,6,1,0,0.03
2013-1-3,44,35,30,13,9,4,45,34,25,30.36,30.17,11,1,16,0.00
2013-1-4,49,30,19,16,12,3,76,52,17,30.43,30.30,4,0,0,0.00
2013-1-5,54,30,17,19,14,6,83,59,17,30.52,30.38,3,0,0,0.00
2013-1-6,54,37,24,20,17,13,75,49,21,30.40,30.01,3,0,0,0.00
2013-1-7,55,37,24,22,18,13,78,51,25,30.06,29.92,4,0,0,0.00
2013-1-8,60,42,26,26,18,11,64,40,16,30.24,30.04,5,0,0,0.00
2013-1-9,65,46,30,26,23,17,75,45,17,30.31,30.05,4,0,0,0.00
2013-1-10,45,36,29,31,25,22,81,65,44,30.06,29.72,8,2,16,0.00
2013-1-11,40,28,18,22,8,-6,67,46,16,30.07,29.78,10,1,12,0.00
2013-1-12,38,24,12,10,5,-2,78,48,19,30.23,30.07,7,0,0,0.00
2013-1-13,37,21,9,8,5,1,79,52,23,30.27,30.13,4,0,0,0.00
2013-1-14,35,21,12,9,2,-8,81,46,26,30.42,30.17,4,0,0,0.00
2013-1-15,42,27,12,12,3,-5,55,36,18,30.55,30.42,4,0,0,0.00
2013-1-16,56,35,22,20,15,10,65,46,22,30.58,30.35,5,0,0,0.00
2013-1-17,58,39,28,20,17,16,62,44,21,30.44,30.29,4,0,0,0.00
2013-1-18,61,38,24,25,20,16,72,51,21,30.40,30.24,3,0,0,0.00
2013-1-19,64,36,25,25,18,13,77,52,17,30.41,30.26,3,0,0,0.00
2013-1-20,64,38,22,20,14,6,70,42,10,30.35,30.18,3,0,0,0.00
2013-1-21,65,42,29,18,12,2,60,34,9,30.29,30.17,5,0,0,0.00
2013-1-22,69,43,26,23,16,10,62,39,11,30.32,30.22,4,0,0,0.00
2013-1-23,66,44,28,32,25,18,69,49,20,30.35,30.23,2,0,0,0.00
2013-1-24,54,46,40,45,39,28,95,77,46,30.28,30.18,3,0,0,0.03
2013-1-25,59,50,42,50,46,41,97,89,65,30.25,30.02,2,0,0,0.27
2013-1-26,50,48,46,50,47,46,98,98,96,30.03,29.79,5,0,0,2.01
2013-1-27,54,47,43,50,46,41,99,96,83,29.96,29.84,4,0,0,0.18
2013-1-28,43,36,31,41,34,29,98,90,67,30.00,29.77,8,0,0,0.27
2013-1-29,37,30,20,30,25,19,96,83,59,30.33,29.99,3,0,0,0.01
2013-1-30,51,33,22,32,25,18,96,77,37,30.47,30.32,3,0,0,0.00
2013-1-31,62,38,26,37,30,25,98,76,31,30.41,30.22,3,0,0,0.01
2013-2-1,63,40,27,35,29,24,95,71,24,30.34,30.21,3,0,0,0.00
2013-2-2,67,45,31,34,30,26,90,62,22,30.39,30.21,3,0,0,0.00
2013-2-3,56,45,37,40,35,31,88,69,43,30.25,30.00,2,0,0,0.00
2013-2-4,66,45,33,37,32,26,92,65,24,30.11,29.98,3,0,0,0.00
2013-2-5,67,43,28,34,28,17,89,63,15,30.11,29.95,4,0,0,0.00
2013-2-6,62,44,33,45,36,30,94,77,36,30.09,29.91,5,0,0,0.02
2013-2-7,62,42,30,40,32,25,98,74,25,30.17,29.98,3,0,0,0.00
2013-2-8,55,42,35,37,27,16,91,59,36,29.98,29.73,9,1,0,0.00
2013-2-9,37,32,29,32,29,22,95,89,55,30.08,29.69,4,0,0,0.01
2013-2-10,35,31,26,32,29,25,96,93,82,30.10,29.98,4,0,0,0.02
2013-2-11,45,27,20,42,26,18,97,94,83,30.28,30.09,2,0,1,0.01
2013-2-12,47,29,17,27,22,16,95,78,38,30.43,30.28,5,0,0,0.01
2013-2-13,60,35,22,28,23,18,90,65,24,30.36,30.19,4,0,0,0.00
2013-2-14,61,43,25,29,23,20,91,51,25,30.27,30.14,6,1,0,0.00
2013-2-15,65,45,31,23,18,6,64,36,12,30.37,30.23,6,0,0,0.00
2013-2-16,72,43,26,25,20,4,74,47,9,30.40,30.09,4,0,0,0.00
2013-2-17,65,42,26,24,20,8,81,48,13,30.10,29.81,6,0,0,0.00
2013-2-18,63,40,26,27,22,13,83,55,15,30.12,29.97,6,0,0,0.00
2013-2-19,60,42,28,27,22,14,83,50,19,30.00,29.64,7,1,0,0.00
2013-2-20,43,33,30,34,30,21,96,89,44,29.94,29.59,5,0,0,0.11
2013-2-21,34,31,29,33,30,28,98,96,94,30.11,29.93,1,0,0,0.04
2013-2-22,48,31,20,36,27,19,98,86,37,30.25,30.10,4,0,0,0.13
2013-2-23,54,37,22,31,25,21,96,66,36,30.26,29.86,7,1,0,0.01
2013-2-24,45,35,27,26,15,7,88,46,22,30.17,29.89,8,1,15,0.00
2013-2-25,57,35,21,23,18,7,81,56,14,30.29,30.09,4,0,0,0.00
2013-2-26,58,38,22,23,11,-1,91,41,11,30.22,30.03,8,1,0,0.00
2013-2-27,55,41,28,13,6,-3,50,24,13,30.31,30.18,7,1,14,0.00
2013-2-28,64,43,31,19,8,-5,48,25,10,30.41,30.29,5,0,0,0.00
2013-3-1,72,47,28,28,22,13,71,41,17,30.45,30.27,7,0,0,0.00
2013-3-2,75,50,32,36,29,16,80,51,11,30.37,30.10,4,0,0,0.00
2013-3-3,63,49,33,37,30,23,87,50,25,30.13,29.92,3,0,0,0.00
2013-3-4,67,51,38,35,31,26,71,47,26,30.08,29.85,5,0,0,0.00
2013-3-5,67,47,31,34,30,23,89,57,20,30.18,30.02,4,0,0,0.00
2013-3-6,70,49,32,38,30,25,91,54,20,30.07,29.88,8,0,0,0.00
2013-3-7,69,48,31,35,29,21,90,52,20,29.95,29.83,7,1,0,0.00
2013-3-8,50,37,32,41,34,30,98,89,47,29.92,29.62,6,0,13,1.12
2013-3-9,38,33,31,38,32,31,98,98,98,30.20,29.92,0,0,0,0.18
2013-3-10,63,39,28,44,32,26,99,80,26,30.33,30.19,8,0,0,0.01
2013-3-11,71,44,28,39,32,25,93,67,21,30.27,30.07,4,0,0,0.00
2013-3-12,76,51,31,38,32,26,93,56,18,30.19,30.06,6,0,0,0.00
2013-3-13,79,55,35,38,32,25,88,48,15,30.24,30.08,4,0,0,0.00
2013-3-14,87,60,46,41,33,20,68,42,10,30.18,29.98,4,0,0,0.00
2013-3-15,81,57,40,40,35,29,81,50,17,30.05,29.85,5,0,0,0.00
2013-3-16,78,55,42,44,37,28,86,58,18,29.89,29.68,6,0,0,0.00
2013-3-17,76,53,37,40,24,-11,91,44,4,29.88,29.72,10,0,16,0.00
2013-3-18,75,53,34,36,28,16,75,45,12,29.98,29.85,5,0,0,0.00
2013-3-19,76,54,43,41,33,21,79,50,14,30.06,29.89,7,0,0,0.00
2013-3-20,72,54,40,38,34,30,78,50,24,30.06,29.81,7,0,0,0.00
2013-3-21,76,55,41,39,32,2,84,50,7,29.81,29.62,9,0,15,0.00
2013-3-22,71,50,34,35,20,-2,74,36,9,29.80,29.61,7,0,14,0.00
2013-3-23,64,46,32,18,8,-12,53,24,4,30.04,29.80,7,0,0,0.00
2013-3-24,69,49,28,19,13,4,60,26,12,30.08,29.87,6,0,0,0.00
2013-3-25,73,52,32,28,20,8,57,32,12,30.05,29.87,5,0,0,0.00
2013-3-26,73,54,36,30,25,19,70,37,13,29.98,29.81,5,0,0,0.00
2013-3-27,73,53,35,32,26,18,72,39,15,29.97,29.86,5,0,14,0.00
2013-3-28,75,52,34,32,28,24,76,44,17,30.06,29.96,6,0,0,0.00
2013-3-29,80,58,39,35,31,23,73,41,14,30.12,29.96,5,0,0,0.00
2013-3-30,76,55,41,39,33,26,67,47,18,30.06,29.94,6,0,0,0.00
2013-3-31,80,58,39,38,32,27,79,44,17,30.03,29.84,6,1,0,0.00
2013-4-1,73,56,39,39,29,20,83,41,17,29.92,29.80,10,1,0,0.00
2013-4-2,73,54,35,31,27,22,74,39,16,29.94,29.79,10,1,13,0.00
2013-4-3,78,58,40,36,30,20,72,40,15,30.03,29.90,7,0,0,0.00
2013-4-4,80,58,38,34,28,20,64,36,11,30.08,29.90,5,0,0,0.00
2013-4-5,80,60,42,35,32,27,70,38,17,29.92,29.75,8,1,0,0.00
2013-4-6,79,58,40,37,32,29,73,42,18,29.92,29.76,6,0,0,0.00
2013-4-7,78,58,40,37,32,26,75,43,17,29.86,29.66,7,0,0,0.00
2013-4-8,64,51,43,41,33,23,67,50,35,29.66,29.25,16,1,20,0.02
2013-4-9,53,43,38,40,36,28,96,80,41,29.67,29.43,4,0,0,0.10
2013-4-26,50,48,47,31,29,28,52,47,43,30.09,30.08,0,0,0,0.00
2013-4-27,86,64,39,31,18,1,59,24,6,30.10,29.86,6,0,0,0.00
2013-4-28,89,63,43,29,21,9,43,24,6,29.91,29.67,5,0,0,0.00
2013-4-29,92,68,44,32,23,5,53,22,4,29.80,29.55,7,0,0,0.00
2013-4-30,88,69,48,35,22,10,53,20,6,29.68,29.54,11,1,0,0.00
2013-5-1,86,67,44,30,17,-14,49,19,3,30.03,29.67,12,1,12,0.00
2013-5-2,76,62,50,20,6,-10,24,11,4,30.18,30.02,13,2,17,0.00
2013-5-3,84,63,41,26,14,-5,37,17,4,30.11,29.74,5,0,0,0.00
2013-5-4,83,63,41,28,19,2,51,24,5,29.79,29.61,5,0,0,0.00
2013-5-5,77,63,52,39,25,17,50,25,14,29.81,29.70,6,1,0,0.00
2013-5-6,73,60,49,43,38,31,66,45,29,29.88,29.77,7,1,0,0.00
2013-5-7,69,57,42,46,39,27,91,54,24,29.90,29.75,9,1,14,0.04
2013-5-8,72,56,36,41,35,29,96,54,22,30.02,29.89,5,0,0,0.01
2013-5-9,78,58,40,39,35,26,78,46,16,29.96,29.85,9,0,0,0.00
2013-5-10,81,62,43,41,35,27,76,42,15,30.06,29.88,6,0,0,0.00
2013-5-11,85,69,54,42,34,26,49,31,12,30.07,29.95,7,1,0,0.00
2013-5-12,91,69,48,37,31,21,62,29,9,30.10,29.87,6,0,0,0.00
2013-5-13,94,72,49,39,31,22,53,27,8,30.03,29.78,7,0,0,0.00
2013-5-14,94,70,51,45,35,26,64,32,11,29.89,29.69,5,0,0,0.00
2013-5-15,89,71,50,40,28,10,62,25,7,29.85,29.69,7,1,13,0.00
2013-5-16,89,68,45,36,24,12,51,23,6,29.83,29.66,7,1,12,0.00
2013-5-17,81,65,46,33,28,23,55,26,15,29.78,29.72,10,1,0,0.00
2013-5-18,82,65,46,39,33,28,61,32,19,29.84,29.71,6,1,0,0.00
2013-5-19,85,67,46,39,30,20,68,30,11,29.83,29.63,12,1,14,0.00
2013-5-20,83,66,47,32,25,14,49,24,8,29.84,29.71,8,1,0,0.00
2013-5-21,89,68,46,36,28,20,60,26,10,29.87,29.66,7,1,0,0.00
2013-5-22,88,70,46,33,26,21,55,23,9,29.71,29.55,7,1,0,0.00
2013-5-23,88,72,55,30,25,18,32,18,9,29.70,29.60,7,1,0,0.00
2013-5-24,88,69,47,37,25,12,60,24,6,29.84,29.70,7,1,0,0.00
2013-5-25,88,68,46,37,22,8,57,23,5,29.85,29.75,6,1,0,0.00
2013-5-26,86,67,44,32,20,2,53,21,4,29.87,29.75,5,1,0,0.00
2013-5-27,86,65,48,38,27,19,51,26,11,29.83,29.66,4,0,0,0.00
2013-5-28,84,66,46,38,32,28,60,31,16,29.70,29.50,7,1,0,0.00
2013-5-29,89,70,48,40,33,27,67,31,13,29.65,29.50,10,1,17,0.00
2013-5-30,91,71,50,46,40,31,61,34,19,29.72,29.60,7,1,0,0.00
2013-5-31,95,75,53,48,43,34,68,36,13,29.78,29.62,8,0,0,0.00
2013-6-1,97,80,61,43,24,12,49,15,6,29.77,29.58,9,1,14,0.00
2013-6-2,97,78,58,40,31,21,42,20,8,29.68,29.52,8,1,0,0.00
2013-6-3,95,75,55,42,31,23,55,24,8,29.70,29.59,8,1,0,0.00
2013-6-4,95,74,52,40,29,21,54,23,8,29.76,29.64,6,1,0,0.00
2013-6-5,99,75,52,41,30,23,48,22,8,29.77,29.60,7,0,0,0.00
2013-6-6,100,78,55,42,31,16,50,22,6,29.72,29.55,5,0,0,0.00
2013-6-7,103,80,56,42,28,4,46,19,4,29.68,29.49,9,0,0,0.00
2013-6-8,104,82,57,40,29,19,47,18,6,29.68,29.53,10,1,0,0.00
2013-6-9,104,81,60,42,31,18,47,19,6,29.73,29.58,5,0,0,0.00
2013-6-10,99,79,56,41,23,3,49,17,4,29.75,29.62,7,1,0,0.00
2013-6-11,101,79,55,38,26,9,42,17,5,29.78,29.66,9,1,14,0.00
2013-6-12,69,62,58,41,32,28,47,33,23,29.80,29.76,1,0,0,0.00
2013-6-19,95,85,67,28,21,16,20,10,6,29.64,29.55,9,2,13,0.00
2013-6-20,95,76,52,37,26,17,47,19,6,29.70,29.60,6,1,0,0.00
2013-6-21,95,76,53,40,26,15,54,20,7,29.74,29.62,9,1,0,0.00
2013-6-22,94,74,52,37,30,22,52,23,8,29.75,29.60,6,1,13,0.00
2013-6-23,95,75,52,36,24,10,50,19,5,29.72,29.56,13,1,19,0.00
2013-6-24,92,75,57,36,28,20,43,20,8,29.73,29.61,8,1,14,0.00
2013-6-25,95,76,54,42,33,25,63,24,9,29.82,29.72,7,1,0,0.00
2013-6-26,99,78,55,38,29,14,52,22,5,29.90,29.78,5,0,0,0.00
2013-6-27,104,82,57,45,36,20,54,24,5,29.94,29.74,5,0,0,0.00
2013-6-28,109,84,62,48,41,30,55,25,8,29.80,29.65,6,0,0,0.00
2013-6-29,107,85,65,53,41,34,49,25,9,29.75,29.57,5,0,0,0.00
2013-6-30,104,84,68,55,44,32,48,27,11,29.69,29.54,8,0,12,0.00
2013-7-1,106,85,70,59,51,43,64,34,13,29.75,29.55,7,0,0,0.00
2013-7-2,98,76,64,68,57,47,83,55,24,29.84,29.63,8,0,0,0.02
2013-7-3,95,77,60,62,54,50,81,49,23,29.80,29.62,8,0,0,0.00
2013-7-4,100,82,63,56,51,46,64,38,18,29.70,29.51,5,0,0,0.00
2013-7-5,92,80,70,62,55,50,65,43,25,29.67,29.55,4,0,0,0.00
2013-7-6,97,77,65,68,56,52,86,52,24,29.69,29.57,6,0,0,0.03
2013-7-7,99,79,61,59,54,46,85,47,20,29.74,29.60,8,0,0,0.00
2013-7-8,104,84,64,58,49,38,69,35,11,29.79,29.64,11,0,0,0.00
2013-7-9,104,83,65,59,51,36,62,36,10,29.85,29.66,6,0,0,0.00
2013-7-10,99,78,68,69,61,52,94,61,25,29.78,29.64,6,0,0,0.11
2013-7-11,87,75,66,67,63,60,92,68,42,29.81,29.69,9,0,0,0.00
2013-7-12,90,71,61,65,62,58,97,77,35,29.84,29.72,6,0,0,0.00
2013-7-13,94,76,59,64,59,51,98,61,27,29.89,29.75,8,0,0,0.01
2013-7-14,100,81,64,62,56,51,79,47,20,29.81,29.64,6,1,0,0.00
2013-7-15,97,78,65,62,57,52,79,51,24,29.71,29.59,7,0,12,0.00
2013-7-16,85,75,66,63,60,55,87,62,42,29.88,29.69,6,0,0,0.00
2013-7-17,91,71,60,71,63,58,95,79,36,29.95,29.84,7,0,0,0.06
2013-7-18,93,76,62,67,62,54,97,66,34,29.92,29.71,6,0,0,0.02
2013-7-19,96,74,64,68,62,58,97,71,29,29.81,29.64,20,0,20,1.16
2013-7-20,88,71,62,73,66,61,98,85,46,29.79,29.63,8,0,0,0.35
2013-7-21,84,72,65,68,65,63,98,82,51,29.82,29.69,4,0,0,0.07
2013-7-22,84,73,64,67,64,61,96,76,52,29.86,29.76,4,0,0,0.00
2013-7-23,88,73,62,67,64,61,97,76,45,29.87,29.76,5,0,0,0.00
2013-7-25,91,79,69,69,66,61,89,66,40,29.87,29.75,4,0,0,0.19
2013-7-26,78,70,66,69,66,64,97,88,70,29.97,29.86,1,0,0,0.06
2013-7-27,67,66,66,61,60,60,83,83,82,29.76,29.76,1,0,0,0.01
2013-7-28,88,71,60,70,62,58,96,76,39,29.78,29.66,7,0,0,0.16
2013-7-29,92,75,59,63,56,46,98,59,26,29.91,29.76,6,0,0,0.00
2013-7-30,97,76,58,58,52,44,83,49,17,30.00,29.86,5,0,0,0.00
2013-7-31,99,80,61,62,55,48,77,48,19,29.94,29.77,7,0,0,0.00
2013-8-1,92,77,65,64,60,57,85,60,32,29.83,29.71,7,0,0,0.00
2013-8-2,96,78,62,64,58,48,89,54,23,29.82,29.69,12,0,12,0.00
2013-8-3,97,80,63,64,55,48,83,49,20,29.84,29.71,6,0,0,0.00
2013-8-4,95,79,65,59,54,47,76,47,24,29.83,29.74,10,0,14,0.00
2013-8-5,94,76,60,57,53,46,79,50,21,29.86,29.74,12,0,12,0.00
2013-8-6,76,68,62,64,60,54,96,75,52,29.89,29.77,10,0,0,0.10
2013-8-7,91,73,60,62,57,50,97,63,27,29.95,29.78,7,0,0,0.02
2013-8-8,94,74,55,54,43,30,80,41,11,29.86,29.71,5,0,0,0.00
2013-8-9,94,74,54,43,38,31,62,32,11,29.83,29.73,8,0,13,0.00
2013-8-10,93,74,57,58,40,32,60,33,13,29.89,29.78,6,0,0,0.02
2013-8-11,91,71,58,56,51,48,75,53,27,29.88,29.82,4,0,0,0.00
2013-8-12,97,84,66,48,44,40,46,26,16,29.79,29.68,7,0,12,0.00
2013-8-13,99,78,56,47,40,31,62,31,11,29.88,29.73,5,0,0,0.00
2013-8-14,99,78,59,49,43,37,54,32,14,29.84,29.70,7,0,0,0.00
2013-8-15,99,81,68,59,52,44,71,38,20,29.84,29.73,5,0,0,0.00
2013-8-16,100,86,65,55,52,46,65,36,17,29.85,29.77,6,1,0,0.00
2013-8-17,99,86,68,65,56,47,86,41,21,29.84,29.72,9,1,0,0.07
2013-8-19,93,82,66,59,53,50,60,38,27,29.83,29.73,6,1,0,0.00
2013-8-20,100,79,58,54,50,43,76,42,15,29.84,29.66,9,0,13,0.00
2013-8-21,82,76,66,61,56,50,73,51,38,29.84,29.72,5,0,0,0.00
2013-8-22,94,77,65,63,56,52,83,53,26,29.86,29.67,6,0,0,0.02
2013-8-23,93,76,60,61,56,50,91,56,25,29.81,29.65,10,0,0,0.00
2013-8-24,86,70,64,66,59,52,94,68,38,29.88,29.72,3,0,0,0.10
2013-8-25,72,66,63,67,63,59,97,90,77,29.97,29.83,1,0,0,0.64
2013-8-26,86,72,63,71,65,61,98,81,52,29.97,29.77,7,0,0,0.12
2013-8-27,92,75,63,66,61,56,93,66,34,29.86,29.69,5,0,0,0.00
2013-8-28,91,74,61,66,60,57,92,67,34,29.86,29.72,5,0,0,0.00
2013-8-29,90,74,61,66,62,58,95,69,40,30.00,29.82,5,0,0,0.87
2013-8-30,86,69,64,71,66,63,98,90,51,29.98,29.82,5,0,0,0.72
2013-8-31,84,69,63,71,66,63,99,92,58,29.92,29.80,9,0,0,0.17
2013-9-1,90,73,61,69,63,60,99,76,38,29.89,29.74,7,0,0,0.01
2013-9-2,92,75,60,66,61,58,97,67,34,29.86,29.71,7,0,0,0.00
2013-9-3,97,78,60,62,58,48,93,57,24,29.85,29.71,6,0,0,0.00
2013-9-4,96,77,64,68,60,54,93,61,28,29.85,29.73,4,0,0,0.07
2013-9-5,93,74,60,67,58,50,96,65,25,29.89,29.78,5,0,0,0.01
2013-9-6,96,75,61,63,57,49,89,59,23,29.89,29.70,7,0,0,0.07
2013-9-7,87,73,62,64,61,56,91,68,39,29.85,29.72,7,0,0,0.00
2013-9-8,76,66,63,67,63,60,97,90,67,29.83,29.71,3,0,0,0.66
2013-9-9,68,63,59,67,63,59,99,98,93,29.80,29.65,3,0,0,1.06
2013-9-10,72,63,58,66,61,58,100,94,74,29.85,29.74,4,0,0,0.58
2013-9-11,79,65,56,65,59,54,99,84,48,29.95,29.84,5,0,0,0.54
2013-9-12,87,67,52,61,55,48,99,71,30,29.94,29.75,5,0,0,0.01
2013-9-13,88,70,55,59,55,48,96,66,27,29.79,29.59,6,0,0,0.00
2013-9-14,88,69,55,62,56,49,95,68,29,29.72,29.58,6,0,0,0.00
2013-9-15,90,70,54,59,56,53,96,66,30,29.79,29.69,5,0,0,0.00
2013-9-16,92,74,56,62,57,51,89,60,31,29.83,29.67,5,0,0,0.00
2013-9-17,90,72,58,64,58,54,94,66,33,29.76,29.57,4,0,0,0.00
2013-9-18,89,71,56,62,49,34,93,54,18,29.68,29.58,9,1,0,0.00
2013-9-19,91,69,52,54,47,38,82,51,17,29.76,29.66,5,0,0,0.00
2013-9-20,90,70,52,53,48,43,85,52,22,29.81,29.69,5,0,0,0.00
2013-9-21,88,71,55,58,53,49,85,55,32,29.79,29.58,6,0,0,0.00
2013-9-22,78,67,50,53,39,14,62,39,11,29.73,29.48,11,1,17,0.00
2013-9-23,85,62,44,46,40,33,78,48,20,29.92,29.73,5,0,0,0.00
2013-9-24,85,65,45,44,38,33,75,43,17,29.97,29.77,5,0,0,0.00
2013-9-25,82,66,49,46,39,33,71,42,20,29.77,29.56,7,1,0,0.00
2013-9-26,78,65,52,52,42,34,90,48,22,29.64,29.51,11,1,0,0.07
2013-9-27,74,60,50,48,32,19,84,40,15,29.97,29.64,8,0,0,0.00
2013-9-28,79,61,46,35,29,20,60,32,12,30.08,29.95,6,0,0,0.00
2013-9-29,83,60,41,46,38,29,75,48,21,30.11,29.93,4,0,0,0.00
2013-9-30,85,62,43,43,37,27,79,48,13,29.99,29.81,4,0,0,0.00
2013-10-1,83,63,42,41,36,32,78,42,17,29.95,29.82,6,0,0,0.00
2013-10-7,67,57,50,33,31,26,49,37,23,29.91,29.89,0,0,0,0.00
2013-10-8,78,60,43,39,31,27,68,37,15,29.89,29.70,7,1,0,0.00
2013-10-9,73,59,46,45,36,27,61,44,21,29.70,29.56,7,1,0,0.00
2013-10-10,56,46,37,44,40,35,96,80,57,30.01,29.59,10,0,17,0.33
2013-10-11,69,49,33,45,39,32,98,74,32,30.11,29.96,5,0,0,0.01
2013-10-12,74,53,36,42,38,33,95,62,25,30.03,29.88,6,0,0,0.00
2013-10-13,73,55,38,45,37,31,94,57,25,29.97,29.84,10,1,0,0.00
2013-10-14,71,52,36,37,31,16,89,51,15,30.05,29.93,4,0,0,0.00
2013-10-15,71,53,35,34,30,23,85,47,18,30.01,29.86,8,0,0,0.00
2013-10-16,70,55,40,35,30,25,69,40,19,30.07,29.95,7,1,0,0.00
2013-10-17,73,50,33,34,28,19,83,49,14,30.11,29.92,7,0,0,0.00
2013-10-18,75,54,35,33,26,18,71,38,15,30.08,29.97,5,0,0,0.00
2013-10-19,76,54,36,31,25,19,65,37,12,30.11,29.94,5,0,0,0.00
2013-10-20,77,53,35,32,26,19,70,41,13,30.01,29.84,4,0,0,0.00
2013-10-21,77,56,36,33,26,20,66,35,15,30.06,29.95,4,0,0,0.00
2013-10-22,79,57,40,33,27,20,64,36,12,30.10,29.94,4,0,0,0.00
2013-10-23,80,57,40,36,29,22,64,39,13,30.03,29.88,5,0,0,0.00
2013-10-24,79,60,47,46,32,20,64,37,14,29.97,29.86,7,0,0,0.00
2013-10-25,76,58,41,42,34,24,76,44,17,30.08,29.97,5,0,0,0.00
2013-10-26,77,60,43,42,36,30,75,44,21,30.15,30.01,4,0,0,0.00
2013-10-27,77,60,42,40,34,26,76,42,20,30.02,29.69,5,0,0,0.00
2013-10-28,69,59,49,41,33,28,53,37,28,29.73,29.65,10,1,12,0.00
2013-10-29,57,51,41,45,38,32,76,62,41,29.89,29.71,9,1,0,0.00
2013-10-30,60,46,35,38,31,26,89,60,30,30.08,29.88,6,0,0,0.00
2013-10-31,64,45,29,34,28,25,89,57,24,30.20,30.06,4,0,0,0.00
2013-11-1,72,49,32,34,27,23,75,46,20,30.26,30.10,8,0,0,0.00
2013-11-2,75,57,37,33,25,17,66,32,13,30.17,29.89,4,0,0,0.00
2013-11-3,71,54,40,39,30,23,66,42,24,29.89,29.72,8,0,0,0.00
2013-11-4,67,50,34,37,30,24,80,50,28,29.87,29.72,6,0,0,0.00
2013-11-5,63,48,36,36,26,7,81,47,25,30.24,29.85,7,0,0,0.00
2013-11-6,68,49,30,18,8,-9,50,22,7,30.38,30.24,5,0,0,0.00
2013-11-7,72,51,37,27,18,8,51,29,13,30.33,30.09,3,0,0,0.00
2013-11-8,71,48,33,32,24,17,64,42,17,30.19,30.02,3,0,0,0.00
2013-11-9,72,50,34,36,30,25,77,49,19,30.19,30.07,5,0,0,0.00
2013-11-10,72,50,36,38,32,28,75,53,25,30.24,30.11,3,0,0,0.00
2013-11-11,78,59,39,34,27,18,70,35,16,30.22,30.10,7,1,0,0.00
2013-11-12,78,63,50,30,22,15,38,21,13,30.22,30.07,7,0,0,0.00
2013-11-13,73,56,44,43,34,22,70,46,29,30.17,29.96,4,0,0,0.00
2013-11-14,72,52,37,39,33,24,87,54,18,30.06,29.83,5,0,0,0.00
2013-11-15,66,52,42,46,40,33,95,66,43,29.84,29.57,8,0,0,0.22
2013-11-16,59,50,43,48,44,39,97,80,56,29.89,29.67,6,0,0,0.00
2013-11-17,60,46,37,45,40,36,96,81,50,30.14,29.89,4,0,0,0.00
2013-11-18,67,47,34,45,39,33,98,77,40,30.22,30.05,3,0,0,0.00
2013-11-19,65,49,36,47,40,34,97,76,47,30.08,29.86,4,0,0,0.00
2013-11-20,55,48,42,48,44,39,97,89,67,29.92,29.80,2,0,0,0.08
2013-11-21,53,48,44,48,46,42,97,92,76,29.97,29.87,7,0,0,0.36
2013-11-22,48,44,43,46,43,41,98,95,84,29.96,29.84,5,0,0,0.93
2013-11-23,40,39,39,39,39,38,97,97,96,30.11,30.10,1,0,0,0.65
2013-11-24,45,39,31,41,37,30,98,94,80,30.22,30.09,3,0,0,0.02
2013-11-25,56,39,28,43,33,24,99,83,33,30.35,30.21,4,0,0,0.01
2013-11-26,59,44,31,36,32,29,93,67,34,30.40,30.26,5,0,0,0.00
2013-11-27,56,46,38,35,31,25,81,57,30,30.32,30.06,5,0,0,0.00
2013-11-28,59,45,32,36,32,29,94,65,33,30.24,30.10,4,0,0,0.00
2013-11-29,62,42,31,40,35,29,96,78,40,30.30,30.19,3,0,0,0.00
2013-11-30,62,43,32,41,35,30,98,76,37,30.30,30.15,3,0,0,0.00
2013-12-1,58,42,32,41,34,30,94,77,48,30.34,30.21,2,0,0,0.00
2013-12-2,62,41,29,40,32,27,94,74,30,30.27,29.96,3,0,0,0.00
2013-12-3,58,44,31,38,32,29,95,66,40,29.97,29.68,5,0,0,0.00
2013-12-4,50,40,29,42,34,28,96,83,55,29.90,29.59,10,1,0,0.00
2013-12-5,42,31,23,30,23,16,97,74,39,30.15,29.90,5,0,0,0.00
2013-12-6,40,26,17,20,16,3,93,70,24,30.32,30.15,3,0,0,0.00
2013-12-7,38,29,17,32,23,15,93,78,55,30.24,30.01,6,1,0,0.00
2013-12-8,41,34,27,33,29,24,96,81,58,30.15,30.01,8,0,0,0.00
2013-12-9,38,28,20,24,11,3,93,55,26,30.56,30.13,5,0,0,0.00
2013-12-10,49,29,16,20,12,6,78,54,22,30.56,30.30,2,0,0,0.00
2013-12-11,57,34,19,21,16,9,83,53,18,30.46,30.36,4,0,0,0.00
2013-12-12,60,41,29,42,28,20,85,63,31,30.44,30.15,6,0,0,0.00
2013-12-13,56,38,28,36,30,23,95,76,45,30.26,30.09,4,0,0,0.00
2013-12-14,54,40,29,25,20,14,80,47,26,30.45,30.26,10,0,0,0.00
2013-12-15,64,44,28,28,22,18,74,46,22,30.47,30.31,5,0,0,0.00
2013-12-16,70,48,34,32,25,20,66,45,16,30.35,30.21,3,0,0,0.00
2013-12-17,68,46,32,37,28,23,75,52,25,30.36,30.19,2,0,0,0.00
2013-12-18,61,44,32,41,31,25,79,62,32,30.20,29.86,2,0,0,0.00
2013-12-19,55,46,36,32,30,27,79,54,36,29.86,29.66,6,0,0,0.00
2013-12-20,47,38,32,43,37,31,98,95,84,29.83,29.69,7,0,0,0.00
2013-12-21,40,34,30,36,33,30,98,95,81,30.12,29.80,3,0,0,0.00
2013-12-22,48,34,26,36,30,25,98,85,47,30.42,30.12,5,0,0,0.00
2013-12-23,56,39,28,31,27,24,91,65,34,30.52,30.41,4,0,0,0.00
2013-12-24,58,42,27,36,28,25,91,62,34,30.42,30.23,6,0,0,0.00
2013-12-25,58,46,38,27,15,6,48,29,14,30.38,30.25,8,1,0,0.00
2013-12-26,59,43,28,24,16,4,67,36,14,30.37,30.23,7,0,0,0.00
2013-12-27,63,44,29,28,22,12,74,45,20,30.36,30.17,6,0,0,0.00
2013-12-28,54,38,27,34,26,22,86,66,30,30.22,30.03,2,0,0,0.00
2013-12-29,54,41,28,29,21,13,85,48,29,30.28,30.06,7,0,0,0.00
2013-12-30,56,36,23,26,17,9,73,51,15,30.40,30.28,2,0,0,0.00
2013-12-31,60,39,27,32,26,23,86,64,27,30.39,30.20,3,0,0,0.00
2014-1-1,63,43,28,32,25,16,87,55,25,30.28,30.17,6,0,0,0.00
2014-1-2,64,44,28,30,20,12,71,43,16,30.31,30.14,2,0,0,0.00